createdAt,value
2018-04-08T00:00:26.952Z,0.00
2018-04-08T00:01:26.973Z,0.00
2018-04-08T00:02:27.024Z,0.00
2018-04-08T00:03:27.036Z,0.00
2018-04-08T00:04:27.069Z,0.00
2018-04-08T00:05:27.410Z,0.00
2018-04-08T00:06:27.135Z,0.00
2018-04-08T00:07:27.160Z,0.00
2018-04-08T00:08:27.203Z,0.00
2018-04-08T00:09:27.228Z,0.00
2018-04-08T00:10:27.268Z,0.00
2018-04-08T00:11:27.287Z,0.00
2018-04-08T00:12:27.569Z,0.00
2018-04-08T00:13:27.355Z,0.00
2018-04-08T00:14:27.386Z,0.00
2018-04-08T00:15:27.422Z,0.00
2018-04-08T00:16:27.453Z,0.00
2018-04-08T00:17:27.487Z,0.00
2018-04-08T00:18:27.510Z,0.00
2018-04-08T00:19:27.813Z,0.00
2018-04-08T00:20:27.590Z,0.00
2018-04-08T00:21:27.620Z,0.00
2018-04-08T00:22:27.641Z,0.00
2018-04-08T00:23:27.673Z,0.00
2018-04-08T00:24:27.696Z,0.00
2018-04-08T00:25:27.732Z,0.00
2018-04-08T00:26:28.061Z,0.00
2018-04-08T00:27:27.796Z,0.00
2018-04-08T00:28:27.822Z,0.00
2018-04-08T00:29:27.857Z,0.00
2018-04-08T00:30:27.889Z,0.00
2018-04-08T00:31:27.916Z,0.00
2018-04-08T00:32:27.951Z,0.00
2018-04-08T00:33:28.239Z,0.00
2018-04-08T00:34:28.016Z,0.00
2018-04-08T00:35:28.044Z,0.00
2018-04-08T00:36:28.085Z,0.00
2018-04-08T00:37:28.114Z,0.00
2018-04-08T00:38:28.200Z,0.00
2018-04-08T00:39:28.177Z,0.00
2018-04-08T00:40:28.453Z,0.00
2018-04-08T00:41:28.234Z,0.00
2018-04-08T00:42:28.267Z,0.00
2018-04-08T00:43:28.304Z,0.00
2018-04-08T00:44:28.569Z,0.00
2018-04-08T00:45:28.374Z,0.00
2018-04-08T00:46:28.660Z,0.00
2018-04-08T00:47:28.426Z,0.00
2018-04-08T00:48:28.469Z,0.00
2018-04-08T00:49:28.526Z,0.00
2018-04-08T00:50:28.524Z,0.00
2018-04-08T00:51:28.544Z,0.00
2018-04-08T00:52:28.884Z,0.00
2018-04-08T00:53:28.607Z,0.00
2018-04-08T00:54:28.643Z,0.00
2018-04-08T00:55:28.673Z,0.00
2018-04-08T00:56:28.714Z,0.00
2018-04-08T00:57:28.799Z,0.00
2018-04-08T00:58:29.022Z,0.00
2018-04-08T00:59:28.808Z,0.00
2018-04-08T01:00:28.831Z,0.00
2018-04-08T01:01:28.857Z,0.00
2018-04-08T01:02:28.894Z,0.00
2018-04-08T01:03:28.917Z,0.00
2018-04-08T01:04:29.252Z,0.00
2018-04-08T01:05:29.015Z,0.00
2018-04-08T01:06:29.017Z,0.00
2018-04-08T01:07:29.088Z,0.00
2018-04-08T01:08:29.107Z,0.00
2018-04-08T01:09:29.327Z,0.00
2018-04-08T01:10:29.400Z,0.00
2018-04-08T01:11:29.218Z,0.00
2018-04-08T01:12:29.210Z,0.00
2018-04-08T01:13:29.231Z,0.00
2018-04-08T01:14:29.293Z,0.00
2018-04-08T01:15:29.298Z,0.00
2018-04-08T01:16:29.632Z,0.00
2018-04-08T01:17:29.362Z,0.00
2018-04-08T01:18:29.404Z,0.00
2018-04-08T01:19:29.423Z,0.00
2018-04-08T01:20:29.453Z,0.00
2018-04-08T01:21:29.485Z,0.00
2018-04-08T01:22:29.764Z,0.00
2018-04-08T01:23:29.561Z,0.00
2018-04-08T01:24:29.768Z,0.00
2018-04-08T01:25:29.634Z,0.00
2018-04-08T01:26:29.640Z,0.00
2018-04-08T01:27:29.666Z,0.00
2018-04-08T01:28:29.965Z,0.00
2018-04-08T01:29:29.736Z,0.00
2018-04-08T01:30:29.768Z,0.00
2018-04-08T01:31:29.793Z,0.00
2018-04-08T01:32:29.828Z,0.00
2018-04-08T01:33:29.855Z,0.00
2018-04-08T01:34:30.188Z,0.00
2018-04-08T01:35:30.013Z,0.00
2018-04-08T01:36:29.970Z,0.00
2018-04-08T01:37:29.997Z,0.00
2018-04-08T01:38:30.012Z,0.00
2018-04-08T01:39:30.040Z,0.00
2018-04-08T01:40:30.326Z,0.00
2018-04-08T01:41:30.110Z,0.00
2018-04-08T01:42:30.234Z,0.00
2018-04-08T01:43:30.167Z,0.00
2018-04-08T01:44:30.199Z,0.00
2018-04-08T01:45:30.228Z,0.00
2018-04-08T01:46:30.564Z,0.00
2018-04-08T01:47:30.297Z,0.00
2018-04-08T01:48:30.385Z,0.00
2018-04-08T01:49:30.359Z,0.00
2018-04-08T01:50:30.384Z,0.00
2018-04-08T01:51:30.422Z,0.00
2018-04-08T01:52:30.750Z,0.00
2018-04-08T01:53:30.479Z,0.00
2018-04-08T01:54:30.512Z,0.00
2018-04-08T01:55:30.559Z,0.00
2018-04-08T01:56:30.606Z,0.00
2018-04-08T01:57:30.614Z,0.00
2018-04-08T01:58:30.937Z,0.00
2018-04-08T01:59:30.679Z,0.00
2018-04-08T02:00:30.706Z,0.00
2018-04-08T02:01:30.732Z,0.00
2018-04-08T02:02:30.758Z,0.00
2018-04-08T02:03:30.796Z,0.00
2018-04-08T02:04:30.817Z,0.00
2018-04-08T02:05:31.150Z,0.00
2018-04-08T02:06:30.894Z,0.00
2018-04-08T02:07:30.911Z,0.00
2018-04-08T02:08:30.941Z,0.00
2018-04-08T02:09:30.974Z,0.00
2018-04-08T02:10:31.009Z,0.00
2018-04-08T02:11:31.037Z,0.00
2018-04-08T02:12:31.321Z,0.00
2018-04-08T02:13:31.103Z,0.00
2018-04-08T02:14:31.234Z,0.00
2018-04-08T02:15:31.158Z,0.00
2018-04-08T02:16:31.192Z,0.00
2018-04-08T02:17:31.224Z,0.00
2018-04-08T02:18:31.286Z,0.00
2018-04-08T02:19:31.553Z,0.00
2018-04-08T02:20:31.315Z,0.00
2018-04-08T02:21:31.346Z,0.00
2018-04-08T02:22:31.413Z,0.00
2018-04-08T02:23:31.408Z,0.00
2018-04-08T02:24:31.439Z,0.00
2018-04-08T02:25:31.471Z,0.00
2018-04-08T02:26:31.799Z,0.00
2018-04-08T02:27:31.532Z,0.00
2018-04-08T02:28:31.566Z,0.00
2018-04-08T02:29:31.595Z,0.00
2018-04-08T02:30:31.678Z,0.00
2018-04-08T02:31:31.714Z,0.00
2018-04-08T02:32:31.695Z,0.00
2018-04-08T02:33:32.025Z,0.00
2018-04-08T02:34:31.755Z,0.00
2018-04-08T02:35:31.782Z,0.00
2018-04-08T02:36:31.818Z,0.00
2018-04-08T02:37:31.849Z,0.00
2018-04-08T02:38:31.870Z,0.00
2018-04-08T02:39:31.982Z,0.00
2018-04-08T02:40:32.186Z,0.00
2018-04-08T02:41:31.963Z,0.00
2018-04-08T02:42:32.023Z,0.00
2018-04-08T02:43:32.038Z,0.00
2018-04-08T02:44:32.068Z,0.00
2018-04-08T02:45:32.093Z,0.00
2018-04-08T02:46:32.120Z,0.00
2018-04-08T02:47:32.397Z,0.00
2018-04-08T02:48:32.183Z,0.00
2018-04-08T02:49:32.212Z,0.00
2018-04-08T02:50:32.245Z,0.00
2018-04-08T02:51:32.330Z,0.00
2018-04-08T02:52:32.305Z,0.00
2018-04-08T02:53:32.333Z,0.00
2018-04-08T02:54:32.619Z,0.00
2018-04-08T02:55:32.398Z,0.00
2018-04-08T02:56:32.437Z,0.00
2018-04-08T02:57:32.458Z,0.00
2018-04-08T02:58:32.518Z,0.00
2018-04-08T02:59:32.546Z,0.00
2018-04-08T03:00:32.550Z,0.00
2018-04-08T03:01:32.905Z,0.00
2018-04-08T03:02:32.618Z,0.00
2018-04-08T03:03:32.683Z,0.00
2018-04-08T03:04:32.674Z,0.00
2018-04-08T03:05:32.704Z,0.00
2018-04-08T03:06:32.735Z,0.00
2018-04-08T03:07:32.766Z,0.00
2018-04-08T03:08:33.102Z,0.00
2018-04-08T03:09:32.883Z,0.00
2018-04-08T03:10:32.930Z,0.00
2018-04-08T03:11:32.942Z,0.00
2018-04-08T03:12:32.952Z,0.00
2018-04-08T03:13:32.964Z,0.00
2018-04-08T03:14:32.983Z,0.00
2018-04-08T03:15:33.315Z,0.00
2018-04-08T03:16:33.044Z,0.00
2018-04-08T03:17:33.213Z,0.00
2018-04-08T03:18:33.108Z,0.00
2018-04-08T03:19:33.142Z,0.00
2018-04-08T03:20:33.277Z,0.00
2018-04-08T03:21:33.497Z,0.00
2018-04-08T03:22:33.230Z,0.00
2018-04-08T03:23:33.261Z,0.00
2018-04-08T03:24:33.293Z,0.00
2018-04-08T03:25:33.323Z,0.00
2018-04-08T03:26:33.356Z,0.00
2018-04-08T03:27:33.688Z,0.00
2018-04-08T03:28:33.430Z,0.00
2018-04-08T03:29:33.454Z,0.00
2018-04-08T03:30:33.611Z,0.00
2018-04-08T03:31:33.535Z,0.00
2018-04-08T03:32:33.556Z,0.00
2018-04-08T03:33:33.866Z,0.00
2018-04-08T03:34:33.599Z,0.00
2018-04-08T03:35:33.680Z,0.00
2018-04-08T03:36:33.678Z,0.00
2018-04-08T03:37:33.692Z,0.00
2018-04-08T03:38:33.735Z,0.00
2018-04-08T03:39:34.006Z,0.00
2018-04-08T03:40:33.785Z,0.00
2018-04-08T03:41:33.828Z,0.00
2018-04-08T03:42:33.851Z,0.00
2018-04-08T03:43:33.879Z,0.00
2018-04-08T03:44:33.916Z,0.00
2018-04-08T03:45:34.210Z,0.00
2018-04-08T03:46:33.969Z,0.00
2018-04-08T03:47:34.021Z,0.00
2018-04-08T03:48:34.034Z,0.00
2018-04-08T03:49:34.068Z,0.00
2018-04-08T03:50:34.254Z,0.00
2018-04-08T03:51:34.550Z,0.00
2018-04-08T03:52:34.157Z,0.00
2018-04-08T03:53:34.186Z,0.00
2018-04-08T03:54:34.213Z,0.00
2018-04-08T03:55:34.309Z,0.00
2018-04-08T03:56:34.276Z,0.00
2018-04-08T03:57:34.605Z,0.00
2018-04-08T03:58:34.529Z,0.00
2018-04-08T03:59:34.373Z,0.00
2018-04-08T04:00:34.412Z,0.00
2018-04-08T04:01:34.432Z,0.00
2018-04-08T04:02:34.463Z,0.00
2018-04-08T04:03:34.748Z,0.00
2018-04-08T04:04:34.539Z,0.00
2018-04-08T04:05:34.555Z,0.00
2018-04-08T04:06:34.625Z,0.00
2018-04-08T04:07:34.616Z,0.00
2018-04-08T04:08:34.658Z,0.00
2018-04-08T04:09:34.940Z,0.00
2018-04-08T04:10:34.711Z,0.00
2018-04-08T04:11:34.749Z,0.00
2018-04-08T04:12:34.779Z,0.00
2018-04-08T04:13:34.802Z,0.00
2018-04-08T04:14:34.852Z,0.00
2018-04-08T04:15:35.112Z,0.00
2018-04-08T04:16:34.898Z,0.00
2018-04-08T04:17:34.931Z,0.00
2018-04-08T04:18:34.963Z,0.00
2018-04-08T04:19:35.043Z,0.00
2018-04-08T04:20:35.021Z,0.00
2018-04-08T04:21:35.305Z,0.00
2018-04-08T04:22:35.083Z,0.00
2018-04-08T04:23:35.126Z,0.00
2018-04-08T04:24:35.146Z,0.00
2018-04-08T04:25:35.534Z,0.00
2018-04-08T04:26:35.200Z,0.00
2018-04-08T04:27:35.541Z,0.00
2018-04-08T04:28:35.271Z,0.00
2018-04-08T04:29:35.293Z,4.00
2018-04-08T04:30:35.695Z,4.00
2018-04-08T04:31:35.356Z,0.00
2018-04-08T04:32:35.384Z,4.00
2018-04-08T04:33:35.414Z,4.00
2018-04-08T04:34:35.708Z,8.00
2018-04-08T04:35:35.536Z,8.00
2018-04-08T04:36:35.505Z,4.00
2018-04-08T04:37:35.547Z,12.00
2018-04-08T04:38:35.603Z,12.00
2018-04-08T04:39:35.599Z,12.00
2018-04-08T04:40:35.636Z,16.00
2018-04-08T04:41:35.929Z,16.00
2018-04-08T04:42:35.697Z,20.00
2018-04-08T04:43:35.724Z,24.00
2018-04-08T04:44:35.766Z,28.00
2018-04-08T04:45:35.808Z,32.00
2018-04-08T04:46:35.870Z,36.00
2018-04-08T04:47:35.847Z,44.00
2018-04-08T04:48:36.179Z,52.00
2018-04-08T04:49:35.908Z,56.00
2018-04-08T04:50:35.939Z,60.00
2018-04-08T04:51:35.970Z,68.00
2018-04-08T04:52:36.002Z,76.00
2018-04-08T04:53:36.041Z,84.00
2018-04-08T04:54:36.083Z,92.00
2018-04-08T04:55:36.344Z,104.00
2018-04-08T04:56:36.129Z,112.00
2018-04-08T04:57:36.154Z,124.00
2018-04-08T04:58:36.201Z,132.00
2018-04-08T04:59:36.219Z,144.00
2018-04-08T05:00:36.247Z,156.00
2018-04-08T05:01:36.278Z,168.00
2018-04-08T05:02:36.610Z,184.00
2018-04-08T05:03:36.336Z,196.00
2018-04-08T05:04:36.366Z,208.00
2018-04-08T05:05:36.408Z,220.00
2018-04-08T05:06:36.441Z,236.00
2018-04-08T05:07:36.457Z,248.00
2018-04-08T05:08:36.487Z,264.00
2018-04-08T05:09:36.767Z,280.00
2018-04-08T05:10:36.551Z,296.00
2018-04-08T05:11:36.595Z,312.00
2018-04-08T05:12:36.614Z,328.00
2018-04-08T05:13:36.646Z,344.00
2018-04-08T05:14:36.673Z,360.00
2018-04-08T05:15:36.705Z,380.00
2018-04-08T05:16:36.990Z,400.00
2018-04-08T05:17:36.761Z,420.00
2018-04-08T05:18:36.816Z,444.00
2018-04-08T05:19:36.842Z,464.00
2018-04-08T05:20:36.943Z,488.00
2018-04-08T05:21:36.891Z,512.00
2018-04-08T05:22:36.920Z,536.00
2018-04-08T05:23:37.208Z,560.00
2018-04-08T05:24:36.988Z,588.00
2018-04-08T05:25:37.009Z,612.00
2018-04-08T05:26:37.036Z,640.00
2018-04-08T05:27:37.069Z,672.00
2018-04-08T05:28:37.149Z,704.00
2018-04-08T05:29:37.151Z,736.00
2018-04-08T05:30:37.464Z,772.00
2018-04-08T05:31:37.189Z,804.00
2018-04-08T05:32:37.249Z,844.00
2018-04-08T05:33:37.289Z,880.00
2018-04-08T05:34:37.281Z,920.00
2018-04-08T05:35:37.311Z,956.00
2018-04-08T05:36:37.344Z,996.00
2018-04-08T05:37:37.643Z,1028.00
2018-04-08T05:38:37.434Z,1068.00
2018-04-08T05:39:37.443Z,1104.00
2018-04-08T05:40:37.486Z,1140.00
2018-04-08T05:41:37.496Z,1180.00
2018-04-08T05:42:37.533Z,1220.00
2018-04-08T05:43:37.566Z,1256.00
2018-04-08T05:44:37.859Z,1292.00
2018-04-08T05:45:37.660Z,1332.00
2018-04-08T05:46:37.663Z,1368.00
2018-04-08T05:47:37.682Z,1400.00
2018-04-08T05:48:37.710Z,1428.00
2018-04-08T05:49:37.740Z,1460.00
2018-04-08T05:50:37.809Z,1480.00
2018-04-08T05:51:38.054Z,1504.00
2018-04-08T05:52:37.830Z,1524.00
2018-04-08T05:53:37.872Z,1548.00
2018-04-08T05:54:37.906Z,1576.00
2018-04-08T05:55:37.947Z,1596.00
2018-04-08T05:56:37.957Z,1624.00
2018-04-08T05:57:38.235Z,1640.00
2018-04-08T05:58:38.084Z,1672.00
2018-04-08T05:59:38.077Z,1704.00
2018-04-08T06:00:38.079Z,1748.00
2018-04-08T06:01:38.140Z,1788.00
2018-04-08T06:02:38.242Z,1824.00
2018-04-08T06:03:38.809Z,1860.00
2018-04-08T06:04:38.208Z,1892.00
2018-04-08T06:05:38.230Z,1920.00
2018-04-08T06:06:38.290Z,1960.00
2018-04-08T06:07:38.314Z,1976.00
2018-04-08T06:08:38.331Z,1984.00
2018-04-08T06:09:38.662Z,1988.00
2018-04-08T06:10:38.387Z,1996.00
2018-04-08T06:11:38.425Z,2000.00
2018-04-08T06:12:38.466Z,2000.00
2018-04-08T06:13:38.492Z,2000.00
2018-04-08T06:14:38.508Z,2004.00
2018-04-08T06:15:38.792Z,2012.00
2018-04-08T06:16:38.587Z,2028.00
2018-04-08T06:17:38.632Z,2048.00
2018-04-08T06:18:38.633Z,2068.00
2018-04-08T06:19:38.664Z,2092.00
2018-04-08T06:20:38.701Z,2120.00
2018-04-08T06:21:38.986Z,2148.00
2018-04-08T06:22:38.755Z,2184.00
2018-04-08T06:23:38.794Z,2220.00
2018-04-08T06:24:38.821Z,2256.00
2018-04-08T06:25:38.852Z,2296.00
2018-04-08T06:26:38.878Z,2352.00
2018-04-08T06:27:39.166Z,2404.00
2018-04-08T06:28:38.940Z,2460.00
2018-04-08T06:29:38.996Z,2520.00
2018-04-08T06:30:39.014Z,2568.00
2018-04-08T06:31:39.038Z,2620.00
2018-04-08T06:32:39.068Z,2656.00
2018-04-08T06:33:39.428Z,2708.00
2018-04-08T06:34:39.127Z,2768.00
2018-04-08T06:35:39.243Z,2832.00
2018-04-08T06:36:39.185Z,2872.00
2018-04-08T06:37:39.334Z,2896.00
2018-04-08T06:38:39.260Z,2920.00
2018-04-08T06:39:39.546Z,2940.00
2018-04-08T06:40:39.320Z,2960.00
2018-04-08T06:41:39.341Z,2976.00
2018-04-08T06:42:39.386Z,2980.00
2018-04-08T06:43:39.411Z,2984.00
2018-04-08T06:44:39.456Z,3000.00
2018-04-08T06:45:39.738Z,2992.00
2018-04-08T06:46:39.523Z,2876.00
2018-04-08T06:47:39.530Z,2928.00
2018-04-08T06:48:39.579Z,2912.00
2018-04-08T06:49:39.603Z,2896.00
2018-04-08T06:50:39.625Z,2876.00
2018-04-08T06:51:39.958Z,2856.00
2018-04-08T06:52:39.713Z,2844.00
2018-04-08T06:53:39.726Z,2832.00
2018-04-08T06:54:39.769Z,2820.00
2018-04-08T06:55:39.788Z,2804.00
2018-04-08T06:56:39.815Z,2776.00
2018-04-08T06:57:40.149Z,2768.00
2018-04-08T06:58:39.894Z,2748.00
2018-04-08T06:59:39.905Z,2744.00
2018-04-08T07:00:39.936Z,2740.00
2018-04-08T07:01:39.966Z,2720.00
2018-04-08T07:02:40.022Z,2712.00
2018-04-08T07:03:40.292Z,2708.00
2018-04-08T07:04:40.065Z,2692.00
2018-04-08T07:05:40.103Z,2692.00
2018-04-08T07:06:40.147Z,2696.00
2018-04-08T07:07:40.156Z,2724.00
2018-04-08T07:08:40.186Z,2732.00
2018-04-08T07:09:40.232Z,2720.00
2018-04-08T07:10:40.510Z,2716.00
2018-04-08T07:11:40.288Z,2704.00
2018-04-08T07:12:40.346Z,2684.00
2018-04-08T07:13:40.394Z,2664.00
2018-04-08T07:14:40.377Z,2656.00
2018-04-08T07:15:40.847Z,2660.00
2018-04-08T07:16:40.445Z,2668.00
2018-04-08T07:17:40.734Z,2676.00
2018-04-08T07:18:40.530Z,2696.00
2018-04-08T07:19:40.546Z,2708.00
2018-04-08T07:20:40.567Z,2712.00
2018-04-08T07:21:40.632Z,2712.00
2018-04-08T07:22:40.650Z,2692.00
2018-04-08T07:23:40.671Z,2684.00
2018-04-08T07:24:41.139Z,2680.00
2018-04-08T07:25:40.726Z,2668.00
2018-04-08T07:26:40.844Z,2668.00
2018-04-08T07:27:40.820Z,2668.00
2018-04-08T07:28:40.827Z,2664.00
2018-04-08T07:29:40.857Z,2652.00
2018-04-08T07:30:40.951Z,2640.00
2018-04-08T07:31:41.166Z,2628.00
2018-04-08T07:32:40.992Z,2632.00
2018-04-08T07:33:40.984Z,2640.00
2018-04-08T07:34:41.031Z,2640.00
2018-04-08T07:35:41.062Z,2652.00
2018-04-08T07:36:41.075Z,2672.00
2018-04-08T07:37:41.127Z,2716.00
2018-04-08T07:38:41.403Z,2784.00
2018-04-08T07:39:41.173Z,2880.00
2018-04-08T07:40:41.215Z,2996.00
2018-04-08T07:41:41.337Z,3112.00
2018-04-08T07:42:41.330Z,3232.00
2018-04-08T07:43:41.340Z,3344.00
2018-04-08T07:44:41.336Z,3436.00
2018-04-08T07:45:41.679Z,3508.00
2018-04-08T07:46:41.393Z,3564.00
2018-04-08T07:47:41.443Z,3604.00
2018-04-08T07:48:41.456Z,3628.00
2018-04-08T07:49:41.599Z,3668.00
2018-04-08T07:50:41.524Z,3716.00
2018-04-08T07:51:41.584Z,3776.00
2018-04-08T07:52:41.886Z,3856.00
2018-04-08T07:53:41.619Z,3932.00
2018-04-08T07:54:41.655Z,3996.00
2018-04-08T07:55:41.764Z,4048.00
2018-04-08T07:56:41.712Z,4060.00
2018-04-08T07:57:41.747Z,4056.00
2018-04-08T07:58:41.800Z,4068.00
2018-04-08T07:59:42.061Z,4084.00
2018-04-08T08:00:41.871Z,4104.00
2018-04-08T08:01:41.883Z,4128.00
2018-04-08T08:02:41.908Z,4172.00
2018-04-08T08:03:41.938Z,4212.00
2018-04-08T08:04:42.038Z,4276.00
2018-04-08T08:05:42.024Z,4368.00
2018-04-08T08:06:42.371Z,4460.00
2018-04-08T08:07:42.144Z,4544.00
2018-04-08T08:08:42.103Z,4556.00
2018-04-08T08:09:42.350Z,4652.00
2018-04-08T08:10:42.165Z,4672.00
2018-04-08T08:11:42.199Z,4684.00
2018-04-08T08:12:42.411Z,4696.00
2018-04-08T08:13:42.512Z,4740.00
2018-04-08T08:14:42.297Z,4776.00
2018-04-08T08:15:42.327Z,4804.00
2018-04-08T08:16:42.364Z,4816.00
2018-04-08T08:17:42.408Z,4816.00
2018-04-08T08:18:42.442Z,4824.00
2018-04-08T08:19:42.484Z,4812.00
2018-04-08T08:20:42.811Z,4804.00
2018-04-08T08:21:42.529Z,4800.00
2018-04-08T08:24:42.634Z,4812.00
2018-04-08T08:25:42.651Z,4816.00
2018-04-08T08:26:42.705Z,4832.00
2018-04-08T08:27:43.071Z,4840.00
2018-04-08T08:28:42.803Z,4844.00
2018-04-08T08:29:42.788Z,4852.00
2018-04-08T08:30:42.816Z,4876.00
2018-04-08T08:31:42.858Z,4912.00
2018-04-08T08:32:42.887Z,4964.00
2018-04-08T08:33:43.174Z,5032.00
2018-04-08T08:34:42.961Z,5064.00
2018-04-08T08:35:42.980Z,5044.00
2018-04-08T08:36:43.025Z,4940.00
2018-04-08T08:37:43.053Z,4900.00
2018-04-08T08:38:43.079Z,4856.00
2018-04-08T08:39:43.361Z,4840.00
2018-04-08T08:40:43.141Z,4848.00
2018-04-08T08:41:43.224Z,4880.00
2018-04-08T08:42:43.220Z,4936.00
2018-04-08T08:43:43.413Z,5036.00
2018-04-08T08:44:43.287Z,5152.00
2018-04-08T08:45:43.559Z,5292.00
2018-04-08T08:46:43.343Z,5476.00
2018-04-08T08:47:43.608Z,5604.00
2018-04-08T08:48:43.452Z,5736.00
2018-04-08T08:49:43.495Z,5752.00
2018-04-08T08:50:43.527Z,5948.00
2018-04-08T08:51:43.756Z,6040.00
2018-04-08T08:52:43.588Z,6136.00
2018-04-08T08:53:43.572Z,6232.00
2018-04-08T08:54:43.608Z,6312.00
2018-04-08T08:55:43.654Z,6356.00
2018-04-08T08:56:43.669Z,6344.00
2018-04-08T08:57:43.959Z,6372.00
2018-04-08T08:58:43.737Z,6324.00
2018-04-08T08:59:43.767Z,6212.00
2018-04-08T09:00:43.802Z,6272.00
2018-04-08T09:01:43.836Z,6308.00
2018-04-08T09:02:43.873Z,6344.00
2018-04-08T09:03:44.264Z,6392.00
2018-04-08T09:04:43.935Z,6512.00
2018-04-08T09:05:43.979Z,6548.00
2018-04-08T09:06:44.110Z,6688.00
2018-04-08T09:07:44.038Z,6708.00
2018-04-08T09:08:44.075Z,6716.00
2018-04-08T09:09:44.406Z,6836.00
2018-04-08T09:10:44.157Z,6860.00
2018-04-08T09:11:44.187Z,6840.00
2018-04-08T09:12:44.214Z,6796.00
2018-04-08T09:13:44.234Z,6760.00
2018-04-08T09:14:44.307Z,6692.00
2018-04-08T09:15:44.554Z,6496.00
2018-04-08T09:16:44.404Z,6504.00
2018-04-08T09:17:44.370Z,6352.00
2018-04-08T09:18:44.411Z,6240.00
2018-04-08T09:19:44.614Z,6112.00
2018-04-08T09:20:44.486Z,6024.00
2018-04-08T09:21:44.805Z,5924.00
2018-04-08T09:22:44.549Z,5856.00
2018-04-08T09:23:44.630Z,5812.00
2018-04-08T09:24:44.608Z,5792.00
2018-04-08T09:25:44.644Z,5796.00
2018-04-08T09:26:44.726Z,5800.00
2018-04-08T09:27:44.970Z,5820.00
2018-04-08T09:28:44.756Z,5864.00
2018-04-08T09:29:44.769Z,5912.00
2018-04-08T09:30:44.806Z,5976.00
2018-04-08T09:31:44.836Z,6036.00
2018-04-08T09:32:44.880Z,6100.00
2018-04-08T09:33:45.454Z,6164.00
2018-04-08T09:34:45.043Z,6204.00
2018-04-08T09:35:44.978Z,6236.00
2018-04-08T09:36:45.008Z,6292.00
2018-04-08T09:37:45.036Z,6352.00
2018-04-08T09:38:45.070Z,6428.00
2018-04-08T09:39:45.378Z,6516.00
2018-04-08T09:40:45.354Z,6628.00
2018-04-08T09:41:45.205Z,6728.00
2018-04-08T09:42:45.204Z,6828.00
2018-04-08T09:43:45.243Z,6940.00
2018-04-08T09:44:45.287Z,7048.00
2018-04-08T09:45:45.315Z,7148.00
2018-04-08T09:46:45.600Z,7144.00
2018-04-08T09:47:45.394Z,7136.00
2018-04-08T09:48:45.432Z,7132.00
2018-04-08T09:49:45.447Z,7120.00
2018-04-08T09:50:45.483Z,7116.00
2018-04-08T09:51:45.518Z,7056.00
2018-04-08T09:52:45.541Z,6984.00
2018-04-08T09:53:45.887Z,6884.00
2018-04-08T09:54:45.875Z,6796.00
2018-04-08T09:55:45.645Z,6732.00
2018-04-08T09:56:45.771Z,6680.00
2018-04-08T09:57:45.831Z,6656.00
2018-04-08T09:58:45.747Z,6668.00
2018-04-08T09:59:46.003Z,6692.00
2018-04-08T10:00:46.285Z,6856.00
2018-04-08T10:01:45.915Z,6880.00
2018-04-08T10:02:46.092Z,6920.00
2018-04-08T10:03:46.124Z,6936.00
2018-04-08T10:04:46.009Z,6972.00
2018-04-08T10:05:46.085Z,7012.00
2018-04-08T10:06:46.260Z,7044.00
2018-04-08T10:07:46.436Z,7136.00
2018-04-08T10:08:46.327Z,7192.00
2018-04-08T10:09:46.465Z,7352.00
2018-04-08T10:10:46.238Z,7348.00
2018-04-08T10:11:46.356Z,7400.00
2018-04-08T10:12:46.293Z,7424.00
2018-04-08T10:13:46.317Z,7416.00
2018-04-08T10:14:46.678Z,7372.00
2018-04-08T10:15:46.427Z,7272.00
2018-04-08T10:16:46.519Z,7144.00
2018-04-08T10:17:46.546Z,6996.00
2018-04-08T10:18:46.496Z,6816.00
2018-04-08T10:19:46.534Z,6596.00
2018-04-08T10:20:46.587Z,6356.00
2018-04-08T10:21:46.895Z,6136.00
2018-04-08T10:22:46.567Z,5916.00
2018-04-08T10:23:46.661Z,5708.00
2018-04-08T10:24:46.760Z,5524.00
2018-04-08T10:25:46.751Z,5376.00
2018-04-08T10:26:46.828Z,5248.00
2018-04-08T10:27:46.814Z,5140.00
2018-04-08T10:28:47.246Z,5052.00
2018-04-08T10:29:46.941Z,4936.00
2018-04-08T10:30:46.914Z,4776.00
2018-04-08T10:31:47.009Z,4592.00
2018-04-08T10:32:47.001Z,4420.00
2018-04-08T10:33:47.027Z,4248.00
2018-04-08T10:34:47.088Z,4108.00
2018-04-08T10:35:47.373Z,3984.00
2018-04-08T10:36:47.137Z,3888.00
2018-04-08T10:37:47.138Z,3816.00
2018-04-08T10:38:47.494Z,3756.00
2018-04-08T10:39:47.225Z,3720.00
2018-04-08T10:40:47.284Z,3708.00
2018-04-08T10:41:47.328Z,3720.00
2018-04-08T10:42:48.022Z,3728.00
2018-04-08T10:43:47.483Z,3744.00
2018-04-08T10:44:47.351Z,3668.00
2018-04-08T10:45:47.410Z,3844.00
2018-04-08T10:46:47.588Z,3936.00
2018-04-08T10:47:47.467Z,4096.00
2018-04-08T10:48:47.680Z,4132.00
2018-04-08T10:49:47.867Z,4172.00
2018-04-08T10:50:47.565Z,4264.00
2018-04-08T10:51:47.584Z,4316.00
2018-04-08T10:52:47.748Z,4368.00
2018-04-08T10:53:48.050Z,4472.00
2018-04-08T10:54:47.721Z,4524.00
2018-04-08T10:55:47.881Z,4572.00
2018-04-08T10:56:47.774Z,4624.00
2018-04-08T10:57:47.798Z,4576.00
2018-04-08T10:58:48.219Z,4484.00
2018-04-08T10:59:47.888Z,4384.00
2018-04-08T11:00:48.085Z,4356.00
2018-04-08T11:01:48.053Z,4252.00
2018-04-08T11:02:48.234Z,4208.00
2018-04-08T11:03:48.187Z,4200.00
2018-04-08T11:04:48.104Z,4240.00
2018-04-08T11:05:48.082Z,4288.00
2018-04-08T11:06:48.268Z,4244.00
2018-04-08T11:07:48.276Z,4140.00
2018-04-08T11:08:48.476Z,4028.00
2018-04-08T11:09:48.197Z,3960.00
2018-04-08T11:10:48.364Z,3956.00
2018-04-08T11:11:48.292Z,3956.00
2018-04-08T11:12:48.462Z,3928.00
2018-04-08T11:13:48.327Z,3948.00
2018-04-08T11:14:48.727Z,4004.00
2018-04-08T11:15:48.414Z,4212.00
2018-04-08T11:16:48.506Z,4544.00
2018-04-08T11:17:48.538Z,4976.00
2018-04-08T11:18:48.566Z,5412.00
2018-04-08T11:19:48.550Z,5852.00
2018-04-08T11:20:48.893Z,6252.00
2018-04-08T11:21:48.663Z,6500.00
2018-04-08T11:22:48.721Z,6720.00
2018-04-08T11:23:48.732Z,6852.00
2018-04-08T11:24:48.810Z,7156.00
2018-04-08T11:25:50.043Z,7508.00
2018-04-08T11:26:49.122Z,7976.00
2018-04-08T11:27:48.978Z,8452.00
2018-04-08T11:28:48.917Z,8828.00
2018-04-08T11:29:48.943Z,9064.00
2018-04-08T11:30:49.021Z,9264.00
2018-04-08T11:31:48.983Z,9340.00
2018-04-08T11:32:49.410Z,9268.00
2018-04-08T11:33:49.169Z,9104.00
2018-04-08T11:34:49.200Z,8748.00
2018-04-08T11:35:49.167Z,8380.00
2018-04-08T11:36:49.137Z,8248.00
2018-04-08T11:37:49.189Z,8104.00
2018-04-08T11:38:49.653Z,7940.00
2018-04-08T11:39:49.342Z,7832.00
2018-04-08T11:40:49.315Z,7616.00
2018-04-08T11:41:49.434Z,7280.00
2018-04-08T11:42:49.447Z,6756.00
2018-04-08T11:43:49.369Z,6208.00
2018-04-08T11:44:49.742Z,5936.00
2018-04-08T11:45:49.529Z,5820.00
2018-04-08T11:46:49.512Z,5684.00
2018-04-08T11:47:49.556Z,5660.00
2018-04-08T11:48:49.601Z,5836.00
2018-04-08T11:49:49.632Z,5904.00
2018-04-08T11:50:49.892Z,6168.00
2018-04-08T11:51:49.636Z,6272.00
2018-04-08T11:52:49.714Z,6304.00
2018-04-08T11:53:49.755Z,6368.00
2018-04-08T11:54:49.805Z,6444.00
2018-04-08T11:55:49.859Z,6552.00
2018-04-08T11:56:50.050Z,6660.00
2018-04-08T11:57:50.094Z,6820.00
2018-04-08T11:58:49.976Z,6956.00
2018-04-08T11:59:49.960Z,7064.00
2018-04-08T12:00:50.135Z,6960.00
2018-04-08T12:01:50.143Z,6976.00
2018-04-08T12:02:50.569Z,7080.00
2018-04-08T12:03:50.192Z,7228.00
2018-04-08T12:04:50.309Z,7316.00
2018-04-08T12:05:50.146Z,7468.00
2018-04-08T12:06:50.284Z,7692.00
2018-04-08T12:07:50.225Z,8084.00
2018-04-08T12:08:50.597Z,8424.00
2018-04-08T12:09:50.380Z,8512.00
2018-04-08T12:10:50.303Z,8340.00
2018-04-08T12:11:50.343Z,8388.00
2018-04-08T12:12:50.506Z,8560.00
2018-04-08T12:13:50.516Z,8768.00
2018-04-08T12:14:50.724Z,8804.00
2018-04-08T12:15:50.813Z,8876.00
2018-04-08T12:16:50.627Z,8932.00
2018-04-08T12:17:50.558Z,9000.00
2018-04-08T12:18:50.702Z,9040.00
2018-04-08T12:19:50.565Z,9100.00
2018-04-08T12:20:51.016Z,9176.00
2018-04-08T12:21:50.746Z,9248.00
2018-04-08T12:22:50.710Z,9368.00
2018-04-08T12:23:51.089Z,9580.00
2018-04-08T12:24:50.756Z,9864.00
2018-04-08T12:25:50.791Z,10132.00
2018-04-08T12:26:51.227Z,10312.00
2018-04-08T12:27:51.013Z,10376.00
2018-04-08T12:28:50.917Z,10340.00
2018-04-08T12:29:50.923Z,10332.00
2018-04-08T12:30:51.126Z,10268.00
2018-04-08T12:31:51.035Z,9888.00
2018-04-08T12:32:51.261Z,9608.00
2018-04-08T12:33:51.500Z,9536.00
2018-04-08T12:34:51.109Z,9560.00
2018-04-08T12:35:51.302Z,9548.00